Almo, Kentucky
Current Conditions -  °F | °C
As of 2:15 PM on Monday 26 Jan 2015 (Local Time) from KCEY Reporting Station
Broken Clouds Broken Clouds  
Wind Chill: 29°   Ceiling: 2400
Heat Index: 37°   Visibility: 10mi
Dew Point: 28°   Wind: 13mph
Humidity: 70%   Direction: 280°W
Pressure: 29.95"   Gusts: 17mph
Location:  36.69°N, 88.28°W
Report Text: KCEY 262015Z AUTO 28011G15KT 10SM BKN024 03/M02 A2995 RMK AO1
Loading
Personal Weather Stations






























Interactive Weather Map New forecast layout! Learn more

10-Day Weather Forecast

Advertisements
Track Severe Weather on mobile